Time;durP1;ratioP1;P1;durP2;ratioP2;P2;SDS_P1;SDS_P2;PMS_P1;PMS_P2;Temp;Humidity;BMP_temperature;BMP_pressure;BME280_temperature;BME280_humidity;BME280_pressure;Samples;Min_cycle;Max_cycle;Signal;HPM_P1;HPM_P2
2023/10/11 00:00:44;;;;;;;17.70;7.28;;;22.10;59.90;;;;;;6216322;23;20064;-80
2023/10/11 00:03:16;;;;;;;14.02;8.40;;;22.10;60.00;;;;;;6216136;23;20007;-82
2023/10/11 00:05:46;;;;;;;18.55;7.93;;;22.20;60.00;;;;;;6216882;23;20084;-81
2023/10/11 00:10:53;;;;;;;19.08;7.75;;;22.10;59.40;;;;;;6205209;22;20024;-76
2023/10/11 00:13:20;;;;;;;19.17;7.65;;;22.10;59.60;;;;;;6245025;23;20008;-75
2023/10/11 00:15:50;;;;;;;15.25;7.55;;;22.10;59.50;;;;;;6245026;23;20004;-75
2023/10/11 00:18:26;;;;;;;14.70;7.47;;;22.10;59.50;;;;;;6244554;23;20015;-76
2023/10/11 00:20:53;;;;;;;16.55;7.57;;;22.10;59.00;;;;;;6244300;23;19996;-75
2023/10/11 00:23:21;;;;;;;16.02;7.20;;;22.00;59.40;;;;;;6245185;23;20444;-75
2023/10/11 00:25:50;;;;;;;16.33;7.07;;;22.00;59.30;;;;;;6217960;23;20008;-75
2023/10/11 00:28:16;;;;;;;15.23;7.10;;;22.00;59.30;;;;;;6245495;23;20012;-75
2023/10/11 00:30:46;;;;;;;14.40;6.90;;;22.00;59.10;;;;;;6244992;23;20016;-75
2023/10/11 00:33:12;;;;;;;16.67;6.63;;;21.90;58.90;;;;;;6244815;23;20077;-74
2023/10/11 00:35:48;;;;;;;15.07;7.22;;;21.90;58.90;;;;;;6244884;23;20034;-74
2023/10/11 00:38:18;;;;;;;15.75;6.90;;;21.90;59.10;;;;;;6245006;23;20007;-76
2023/10/11 00:41:00;;;;;;;15.85;7.25;;;21.80;59.10;;;;;;6244821;23;20418;-76
2023/10/11 00:43:41;;;;;;;13.18;7.25;;;21.80;59.10;;;;;;6245182;23;20004;-76
2023/10/11 00:46:09;;;;;;;15.57;7.50;;;21.80;58.60;;;;;;6244648;23;20325;-76
2023/10/11 00:51:26;;;;;;;14.95;7.28;;;21.80;59.10;;;;;;6244613;23;20399;-76
2023/10/11 00:53:52;;;;;;;17.20;7.43;;;21.80;59.00;;;;;;6244247;23;20035;-75
2023/10/11 00:56:20;;;;;;;13.73;6.45;;;21.70;58.90;;;;;;6218198;23;20279;-76
2023/10/11 00:58:50;;;;;;;15.85;6.57;;;21.70;59.00;;;;;;6244500;23;20264;-76
2023/10/11 01:01:17;;;;;;;11.93;6.20;;;21.70;58.80;;;;;;6244241;23;20062;-76
2023/10/11 01:03:43;;;;;;;11.95;6.30;;;21.70;58.70;;;;;;6244377;23;20004;-74
2023/10/11 01:06:11;;;;;;;14.65;6.93;;;21.60;58.70;;;;;;6244507;23;20357;-75
2023/10/11 01:08:40;;;;;;;11.45;6.57;;;21.60;58.70;;;;;;6244312;23;20096;-75
2023/10/11 01:11:11;;;;;;;11.60;5.97;;;21.70;58.80;;;;;;6217726;23;20012;-75
2023/10/11 01:13:40;;;;;;;11.80;6.22;;;21.60;58.90;;;;;;6214297;23;20000;-76
2023/10/11 01:16:07;;;;;;;11.10;5.97;;;21.60;58.70;;;;;;6213935;23;19997;-75
2023/10/11 01:18:33;;;;;;;15.90;6.63;;;21.50;58.70;;;;;;6187012;23;20020;-77
2023/10/11 01:21:04;;;;;;;16.17;7.15;;;21.50;58.80;;;;;;6187121;23;20080;-75
2023/10/11 01:23:34;;;;;;;17.30;6.43;;;21.50;58.20;;;;;;6213719;23;20035;-75
2023/10/11 01:26:06;;;;;;;12.48;6.70;;;21.50;58.80;;;;;;6213786;23;20079;-74
2023/10/11 01:28:31;;;;;;;13.95;6.15;;;21.50;59.00;;;;;;6213717;23;20016;-75
2023/10/11 01:30:57;;;;;;;15.85;6.78;;;21.50;59.10;;;;;;6214073;23;19996;-74
2023/10/11 01:33:23;;;;;;;17.20;6.35;;;21.50;58.90;;;;;;6187013;23;20016;-74
2023/10/11 01:35:49;;;;;;;16.15;7.10;;;21.40;58.70;;;;;;6214060;23;20075;-74
2023/10/11 01:38:17;;;;;;;14.48;6.35;;;21.40;58.80;;;;;;6214896;23;20020;-74
2023/10/11 01:40:43;;;;;;;12.63;6.03;;;21.40;58.70;;;;;;6223372;23;19997;-74
2023/10/11 01:43:09;;;;;;;13.45;6.13;;;21.30;58.60;;;;;;6215375;23;20009;-76
2023/10/11 01:45:39;;;;;;;13.05;6.97;;;21.30;58.70;;;;;;6186738;23;20430;-76
2023/10/11 01:48:05;;;;;;;12.32;7.20;;;21.30;58.60;;;;;;6213605;23;19997;-75
2023/10/11 01:50:31;;;;;;;14.98;6.60;;;21.30;58.80;;;;;;6214013;23;20085;-76
2023/10/11 01:52:57;;;;;;;13.40;6.25;;;21.30;58.50;;;;;;6213813;23;20033;-76
2023/10/11 01:55:22;;;;;;;14.05;6.80;;;21.30;58.80;;;;;;6213920;23;20008;-75
2023/10/11 01:57:50;;;;;;;12.40;6.78;;;21.30;58.90;;;;;;6243745;23;20067;-76
2023/10/11 02:00:20;;;;;;;13.93;7.10;;;21.30;58.90;;;;;;6216872;23;20039;-74
2023/10/11 02:02:55;;;;;;;12.05;6.35;;;21.30;58.90;;;;;;6244175;23;20000;-75
2023/10/11 02:05:31;;;;;;;14.13;6.90;;;21.30;58.90;;;;;;6217128;23;20014;-75
2023/10/11 02:07:57;;;;;;;14.73;6.68;;;21.30;59.10;;;;;;6216858;23;20020;-75
2023/10/11 02:10:26;;;;;;;16.05;7.32;;;21.20;59.00;;;;;;6243724;23;20023;-75
2023/10/11 02:12:55;;;;;;;18.10;6.72;;;21.20;58.70;;;;;;6244074;23;20007;-76
2023/10/11 02:15:27;;;;;;;15.73;6.72;;;21.20;59.30;;;;;;6246217;23;20333;-76
2023/10/11 02:17:53;;;;;;;13.98;6.25;;;21.20;58.90;;;;;;6246473;23;20000;-76
2023/10/11 02:20:22;;;;;;;11.60;6.70;;;21.10;59.00;;;;;;6246599;23;20008;-76
2023/10/11 02:22:59;;;;;;;11.02;6.22;;;21.10;58.40;;;;;;6245868;23;20012;-75
2023/10/11 02:25:25;;;;;;;12.13;6.65;;;21.10;58.10;;;;;;6245533;23;19996;-76
2023/10/11 02:27:54;;;;;;;12.50;6.47;;;21.00;58.50;;;;;;6245760;23;20010;-76
2023/10/11 02:30:24;;;;;;;12.25;6.22;;;21.00;58.50;;;;;;6245559;23;20016;-76
2023/10/11 02:32:53;;;;;;;15.00;6.03;;;21.00;58.60;;;;;;6245541;23;20022;-76
2023/10/11 02:35:19;;;;;;;11.43;6.30;;;20.90;58.50;;;;;;6245437;23;20011;-76
2023/10/11 02:37:48;;;;;;;10.98;6.13;;;20.90;58.40;;;;;;6245289;23;20346;-76
2023/10/11 02:40:16;;;;;;;14.85;6.35;;;20.90;58.50;;;;;;6245308;23;20083;-76
2023/10/11 02:42:49;;;;;;;12.70;6.13;;;20.90;58.60;;;;;;6245519;23;20004;-76
2023/10/11 02:45:19;;;;;;;11.63;6.25;;;20.90;58.60;;;;;;6245492;23;20011;-76
2023/10/11 02:47:45;;;;;;;15.85;6.28;;;21.00;58.70;;;;;;6244984;23;20011;-75
2023/10/11 02:50:11;;;;;;;15.32;6.18;;;20.90;58.40;;;;;;6245611;23;20095;-73
2023/10/11 02:52:37;;;;;;;11.50;6.30;;;20.90;58.40;;;;;;6245372;23;20094;-75
2023/10/11 02:55:21;;;;;;;15.15;6.30;;;20.80;58.40;;;;;;6245278;23;20052;-76
2023/10/11 02:57:48;;;;;;;14.85;6.65;;;20.80;58.50;;;;;;6245383;23;20063;-74
2023/10/11 03:00:21;;;;;;;14.98;6.40;;;20.70;58.60;;;;;;6245114;23;20434;-76
2023/10/11 03:02:54;;;;;;;13.30;6.13;;;20.70;58.70;;;;;;6244951;23;20071;-75
2023/10/11 03:05:27;;;;;;;14.75;6.63;;;20.70;58.60;;;;;;6245512;23;20001;-75
2023/10/11 03:08:13;;;;;;;18.38;5.95;;;20.70;58.90;;;;;;6245226;23;19996;-76
2023/10/11 03:10:56;;;;;;;13.95;6.28;;;20.70;58.80;;;;;;6245293;23;20388;-75
2023/10/11 03:13:41;;;;;;;11.73;5.75;;;20.70;58.50;;;;;;6245213;23;20000;-74
2023/10/11 03:16:12;;;;;;;12.55;6.30;;;20.70;58.50;;;;;;6218034;23;20283;-75
2023/10/11 03:18:39;;;;;;;11.77;6.32;;;20.70;58.60;;;;;;6245139;23;20044;-75
2023/10/11 03:21:33;;;;;;;10.82;6.13;;;20.70;58.70;;;;;;6245038;23;20257;-75
2023/10/11 03:24:04;;;;;;;10.60;5.50;;;20.70;58.70;;;;;;6244992;23;20026;-76
2023/10/11 03:28:59;;;;;;;13.95;6.07;;;20.70;58.70;;;;;;6246233;23;20091;-75
2023/10/11 03:31:28;;;;;;;10.65;6.15;;;20.60;58.50;;;;;;6245355;23;20007;-77
2023/10/11 03:33:58;;;;;;;14.00;6.88;;;20.70;58.80;;;;;;6245212;23;20326;-76
2023/10/11 03:36:31;;;;;;;10.68;6.13;;;20.60;58.50;;;;;;6244933;23;19996;-76
2023/10/11 03:38:58;;;;;;;11.68;6.38;;;20.60;58.70;;;;;;6244845;23;20008;-76
2023/10/11 03:41:35;;;;;;;14.13;5.50;;;20.60;58.80;;;;;;6245144;23;20004;-77
2023/10/11 03:44:09;;;;;;;12.48;5.82;;;20.60;58.80;;;;;;6244843;23;20054;-75
2023/10/11 03:46:36;;;;;;;13.15;5.90;;;20.60;59.10;;;;;;6244948;23;20003;-75
2023/10/11 03:49:14;;;;;;;17.70;6.55;;;20.60;59.30;;;;;;6244561;23;20004;-75
2023/10/11 03:51:43;;;;;;;10.35;5.95;;;20.60;59.30;;;;;;6244838;23;20000;-75
2023/10/11 03:54:19;;;;;;;15.55;6.43;;;20.60;59.30;;;;;;6217816;23;20008;-76
2023/10/11 03:56:51;;;;;;;14.05;6.93;;;20.60;59.10;;;;;;6245007;23;20310;-76
2023/10/11 03:59:18;;;;;;;14.05;6.20;;;20.60;59.30;;;;;;6217573;23;20023;-75
2023/10/11 04:01:44;;;;;;;12.32;6.40;;;20.50;59.40;;;;;;6244567;23;20058;-76
2023/10/11 04:04:10;;;;;;;14.98;6.93;;;20.50;59.10;;;;;;6244624;23;20004;-78
2023/10/11 04:06:36;;;;;;;13.38;6.35;;;20.50;59.00;;;;;;6245263;23;20110;-75
2023/10/11 04:09:21;;;;;;;16.45;6.80;;;20.50;59.40;;;;;;6244860;22;20004;-76
2023/10/11 04:11:57;;;;;;;16.75;6.70;;;20.50;59.60;;;;;;6244590;23;20010;-75
2023/10/11 04:14:39;;;;;;;15.18;6.45;;;20.50;59.70;;;;;;6244110;23;20092;-75
2023/10/11 04:17:14;;;;;;;16.17;6.32;;;20.40;59.80;;;;;;6245159;23;20094;-75
2023/10/11 04:19:41;;;;;;;11.95;6.43;;;20.50;60.00;;;;;;6244697;23;20004;-75
2023/10/11 04:22:16;;;;;;;12.93;6.40;;;20.50;60.00;;;;;;6244380;23;20066;-76
2023/10/11 04:24:45;;;;;;;12.43;6.40;;;20.50;60.20;;;;;;6244479;23;20314;-74
2023/10/11 04:29:47;;;;;;;17.40;6.28;;;20.50;60.50;;;;;;6245018;23;20091;-75
2023/10/11 04:32:14;;;;;;;14.88;6.53;;;20.50;60.30;;;;;;6244505;23;20023;-75
2023/10/11 04:34:48;;;;;;;15.07;6.47;;;20.40;60.40;;;;;;6244464;23;20019;-76
2023/10/11 04:37:27;;;;;;;16.20;6.50;;;20.40;60.80;;;;;;6244104;23;20004;-76
2023/10/11 04:39:56;;;;;;;14.68;6.85;;;20.40;60.70;;;;;;6244275;23;20031;-75
2023/10/11 04:42:28;;;;;;;12.98;6.15;;;20.40;60.80;;;;;;6244394;23;20004;-76
2023/10/11 04:44:54;;;;;;;12.45;6.38;;;20.30;61.00;;;;;;6244257;23;20000;-75
2023/10/11 04:47:23;;;;;;;13.55;6.28;;;20.30;61.20;;;;;;6244389;23;20004;-76
2023/10/11 04:49:48;;;;;;;21.98;7.00;;;20.30;61.10;;;;;;6244528;23;20011;-76
2023/10/11 04:52:22;;;;;;;17.48;6.82;;;20.20;61.10;;;;;;6244247;23;20008;-76
2023/10/11 04:54:55;;;;;;;19.52;6.60;;;20.20;61.30;;;;;;6244136;23;20008;-76
2023/10/11 04:58:09;;;;;;;11.90;6.55;;;20.10;61.40;;;;;;6218718;23;20019;-77
2023/10/11 05:00:17;;;;;;;13.60;6.65;;;20.10;61.60;;;;;;6223491;23;20441;-77
2023/10/11 05:02:44;;;;;;;15.30;6.77;;;20.10;61.70;;;;;;6244673;23;20134;-75
2023/10/11 05:05:18;;;;;;;12.45;6.57;;;20.10;61.70;;;;;;6244609;23;20007;-74
2023/10/11 05:07:46;;;;;;;12.75;7.28;;;20.20;61.80;;;;;;6245240;23;20012;-76
2023/10/11 05:12:47;;;;;;;16.13;6.65;;;20.20;61.90;;;;;;6246316;23;20018;-76
2023/10/11 05:15:15;;;;;;;14.30;6.35;;;20.20;61.80;;;;;;6244848;23;20000;-76
2023/10/11 05:17:42;;;;;;;19.10;7.53;;;20.20;62.00;;;;;;6243989;23;20062;-76
2023/10/11 05:25:39;;;;;;;14.32;6.57;;;20.30;62.00;;;;;;6244994;23;20342;-76
2023/10/11 05:31:19;;;;;;;19.10;7.18;;;20.20;62.00;;;;;;6151831;23;20389;-76
2023/10/11 05:34:12;;;;;;;14.60;7.03;;;20.20;62.10;;;;;;6234501;23;20008;-75
2023/10/11 05:36:49;;;;;;;15.35;7.20;;;20.20;62.10;;;;;;6244402;23;20015;-77
2023/10/11 05:52:56;;;;;;;16.00;8.15;;;19.90;62.30;;;;;;6244276;23;20019;-77
2023/10/11 05:55:22;;;;;;;21.00;8.10;;;19.80;62.10;;;;;;6244151;23;20004;-77
2023/10/11 05:57:49;;;;;;;24.00;8.13;;;19.90;62.30;;;;;;6244307;23;20329;-77
2023/10/11 06:00:25;;;;;;;19.63;8.38;;;19.90;62.30;;;;;;6244382;23;20008;-75
2023/10/11 06:02:52;;;;;;;18.08;9.00;;;19.90;62.40;;;;;;6217679;23;20044;-77
2023/10/11 06:05:23;;;;;;;20.00;7.90;;;20.00;62.30;;;;;;6244300;23;20048;-76
2023/10/11 06:08:00;;;;;;;19.17;8.57;;;20.00;62.40;;;;;;6244538;23;20059;-76
